Time;durP1;ratioP1;P1;durP2;ratioP2;P2;SDS_P1;SDS_P2;PMS_P1;PMS_P2;Temp;Humidity;BMP_temperature;BMP_pressure;BME280_temperature;BME280_humidity;BME280_pressure;Samples;Min_cycle;Max_cycle;Signal;HPM_P1;HPM_P2
2021/07/22 00:01:25;;;;;;;19.05;10.95;;;;;;;21.92;70.08;101738.31;5006844;28;20030;-84
2021/07/22 00:03:51;;;;;;;16.95;11.55;;;;;;;21.91;70.27;101735.78;5008917;28;20034;-82
2021/07/22 00:06:16;;;;;;;18.30;11.40;;;;;;;21.95;70.34;101746.06;5003708;28;20109;-83
2021/07/22 00:08:42;;;;;;;19.00;11.30;;;;;;;21.87;70.07;101740.06;5011829;28;20049;-85
2021/07/22 00:11:08;;;;;;;19.75;11.50;;;;;;;21.99;69.70;101737.41;5014760;28;20060;-83
2021/07/22 00:13:34;;;;;;;17.00;10.45;;;;;;;22.06;69.73;101740.91;5011134;28;20041;-81
2021/07/22 00:15:59;;;;;;;17.60;10.88;;;;;;;21.99;70.20;101737.41;5013529;28;20026;-82
2021/07/22 00:18:25;;;;;;;19.60;10.80;;;;;;;21.97;69.86;101745.03;5009546;28;20022;-84
2021/07/22 00:20:50;;;;;;;19.65;11.30;;;;;;;21.92;69.97;101732.00;4999631;28;20052;-81
2021/07/22 00:23:16;;;;;;;16.50;10.95;;;;;;;21.91;69.83;101731.19;4995752;28;20018;-82
2021/07/22 00:25:42;;;;;;;16.08;10.73;;;;;;;21.82;70.50;101732.53;5012476;28;20068;-83
2021/07/22 00:28:08;;;;;;;18.23;10.43;;;;;;;21.73;70.82;101731.16;4997336;28;20104;-83
2021/07/22 00:30:34;;;;;;;17.27;10.70;;;;;;;21.54;71.24;101727.56;4996635;28;20045;-83
2021/07/22 00:33:01;;;;;;;18.15;10.93;;;;;;;21.48;71.43;101726.53;5016597;28;20052;-82
2021/07/22 00:35:26;;;;;;;18.70;11.05;;;;;;;21.58;71.39;101733.41;5021849;28;21062;-83
2021/07/22 00:37:51;;;;;;;18.75;10.98;;;;;;;21.57;71.54;101735.31;4997937;28;20526;-82
2021/07/22 00:40:17;;;;;;;20.23;11.43;;;;;;;21.50;72.05;101729.06;5010113;28;20036;-81
2021/07/22 00:42:55;;;;;;;18.63;11.05;;;;;;;21.55;71.64;101736.63;4997565;28;20040;-81
2021/07/22 00:45:21;;;;;;;20.45;11.10;;;;;;;21.52;71.64;101733.25;4989394;28;20026;-80
2021/07/22 00:47:46;;;;;;;18.15;11.10;;;;;;;21.55;71.16;101725.66;5027477;28;20021;-84
2021/07/22 00:50:12;;;;;;;17.45;10.65;;;;;;;21.50;71.10;101713.47;4995747;28;20025;-83
2021/07/22 00:52:37;;;;;;;18.85;11.73;;;;;;;21.54;70.68;101723.97;4995920;28;20468;-83
2021/07/22 00:55:03;;;;;;;18.02;10.82;;;;;;;21.45;70.90;101712.50;4997779;28;20558;-83
2021/07/22 00:57:29;;;;;;;17.58;10.80;;;;;;;21.49;71.15;101719.19;5008494;28;20488;-83
2021/07/22 00:59:55;;;;;;;19.38;11.02;;;;;;;21.39;71.14;101707.94;4996933;28;20575;-82
2021/07/22 01:02:20;;;;;;;15.63;10.30;;;;;;;21.47;70.96;101716.69;5010246;28;20084;-83
2021/07/22 01:04:46;;;;;;;19.13;10.75;;;;;;;21.50;70.58;101720.84;4994545;28;20542;-81
2021/07/22 01:07:11;;;;;;;18.67;10.93;;;;;;;21.39;70.04;101695.06;5007123;28;20026;-80
2021/07/22 01:09:37;;;;;;;14.18;10.43;;;;;;;21.42;70.65;101705.56;5006244;28;20041;-82
2021/07/22 01:12:03;;;;;;;21.15;12.95;;;;;;;21.45;70.38;101704.28;5004962;28;20037;-82
2021/07/22 01:14:28;;;;;;;17.42;10.63;;;;;;;21.43;70.42;101701.75;4990588;28;20030;-83
2021/07/22 01:16:53;;;;;;;18.83;10.45;;;;;;;21.34;70.62;101694.06;5013980;28;20156;-83
2021/07/22 01:19:19;;;;;;;16.50;9.88;;;;;;;21.29;71.30;101703.75;5006440;28;20071;-83
2021/07/22 01:21:44;;;;;;;22.02;11.02;;;;;;;21.11;71.44;101692.75;5001103;28;20060;-82
2021/07/22 01:24:10;;;;;;;18.30;11.75;;;;;;;21.01;71.81;101692.41;5028138;28;20416;-82
2021/07/22 01:26:35;;;;;;;19.05;10.25;;;;;;;21.03;71.51;101702.06;5013021;28;20510;-83
2021/07/22 01:29:00;;;;;;;15.85;10.88;;;;;;;21.03;71.84;101696.59;5013718;28;20034;-82
2021/07/22 01:31:26;;;;;;;16.17;10.90;;;;;;;21.03;71.49;101685.66;5011364;28;21176;-82
2021/07/22 01:33:51;;;;;;;16.10;10.65;;;;;;;21.13;71.33;101693.38;5010683;28;20298;-83
2021/07/22 01:36:22;;;;;;;18.17;10.68;;;;;;;21.27;71.08;101702.31;5012731;28;20072;-82
2021/07/22 01:38:49;;;;;;;17.30;9.88;;;;;;;21.24;71.55;101702.75;4993369;28;20473;-82
2021/07/22 01:41:14;;;;;;;17.80;10.23;;;;;;;21.20;71.51;101704.28;5010136;28;20031;-83
2021/07/22 01:43:40;;;;;;;18.60;10.52;;;;;;;21.11;71.10;101698.22;5011154;28;20021;-82
2021/07/22 01:46:05;;;;;;;17.92;10.35;;;;;;;20.99;71.70;101697.28;5013886;28;20045;-83
2021/07/22 01:48:31;;;;;;;19.40;10.57;;;;;;;20.88;71.80;101709.78;5006771;28;20778;-83
2021/07/22 01:50:56;;;;;;;14.93;10.13;;;;;;;20.68;72.48;101681.75;5014668;28;20035;-83
2021/07/22 01:53:21;;;;;;;19.15;11.07;;;;;;;20.75;72.60;101698.94;5015303;28;20480;-83
2021/07/22 01:55:47;;;;;;;18.20;10.95;;;;;;;20.60;73.08;101682.84;5018250;28;20524;-83
2021/07/22 01:58:12;;;;;;;15.85;9.93;;;;;;;20.69;72.99;101699.81;5013359;28;20022;-83
2021/07/22 02:00:38;;;;;;;16.17;10.13;;;;;;;20.57;73.34;101692.31;5015929;28;20754;-83
2021/07/22 02:03:04;;;;;;;17.75;10.93;;;;;;;20.49;73.72;101698.00;5015629;28;20018;-84
2021/07/22 02:05:30;;;;;;;18.42;10.65;;;;;;;20.43;73.69;101687.97;5014809;28;20036;-83
2021/07/22 02:07:55;;;;;;;17.75;11.43;;;;;;;20.47;74.22;101693.81;5021377;28;20029;-82
2021/07/22 02:10:21;;;;;;;19.73;11.10;;;;;;;20.44;74.35;101692.38;5011985;28;20437;-82
2021/07/22 02:12:46;;;;;;;17.30;10.02;;;;;;;20.47;74.21;101691.91;5013147;28;20060;-82
2021/07/22 02:15:12;;;;;;;20.40;10.75;;;;;;;20.51;73.81;101693.16;5012237;28;20025;-83
2021/07/22 02:17:37;;;;;;;17.90;10.50;;;;;;;20.56;73.65;101696.13;5017197;28;20022;-83
2021/07/22 02:20:03;;;;;;;17.52;10.90;;;;;;;20.57;73.72;101689.59;5001328;28;20026;-82
2021/07/22 02:22:29;;;;;;;19.15;10.07;;;;;;;20.38;73.80;101669.50;5013357;28;20105;-82
2021/07/22 02:24:54;;;;;;;17.90;11.35;;;;;;;20.57;73.96;101697.78;5025524;28;20071;-82
2021/07/22 02:27:21;;;;;;;16.50;10.48;;;;;;;20.62;73.61;101695.22;5012285;28;20030;-82
2021/07/22 02:29:46;;;;;;;18.25;10.27;;;;;;;20.59;74.12;101692.09;5007628;28;20030;-82
2021/07/22 02:32:11;;;;;;;20.35;11.35;;;;;;;20.64;73.75;101692.28;5012226;28;20037;-82
2021/07/22 02:34:37;;;;;;;21.77;11.52;;;;;;;20.73;73.43;101693.69;4997408;28;20480;-82
2021/07/22 02:37:03;;;;;;;19.77;10.50;;;;;;;20.75;73.28;101690.75;5016222;28;20053;-83
2021/07/22 02:39:28;;;;;;;19.60;10.82;;;;;;;20.81;73.21;101689.84;4998175;28;20092;-83
2021/07/22 02:41:53;;;;;;;20.15;11.75;;;;;;;20.87;73.19;101678.03;5018501;28;20034;-82
2021/07/22 02:44:19;;;;;;;19.65;10.60;;;;;;;20.86;73.23;101685.38;5007677;28;20037;-83
2021/07/22 02:46:44;;;;;;;17.58;10.52;;;;;;;20.78;73.13;101695.75;5014063;28;20026;-82
2021/07/22 02:49:10;;;;;;;16.15;10.70;;;;;;;20.63;73.45;101680.50;5013383;28;20017;-83
2021/07/22 02:51:35;;;;;;;17.40;11.07;;;;;;;20.52;73.89;101678.44;5009007;28;20030;-83
2021/07/22 02:54:01;;;;;;;14.35;10.52;;;;;;;20.46;74.11;101679.31;4993985;28;20029;-82
2021/07/22 02:56:26;;;;;;;15.65;10.38;;;;;;;20.35;74.49;101675.41;4993024;28;20026;-82
2021/07/22 02:58:51;;;;;;;19.85;10.40;;;;;;;20.20;74.89;101675.66;4993842;28;20365;-83
2021/07/22 03:01:17;;;;;;;17.20;11.60;;;;;;;20.19;75.08;101676.75;5012809;28;20471;-81
2021/07/22 03:03:42;;;;;;;17.88;11.27;;;;;;;20.20;75.59;101681.13;5007406;28;20034;-84
2021/07/22 03:06:08;;;;;;;18.52;10.90;;;;;;;20.16;75.83;101669.00;5009257;28;20026;-81
2021/07/22 03:08:35;;;;;;;15.93;10.88;;;;;;;20.23;75.95;101684.50;5013845;28;20105;-80
2021/07/22 03:11:00;;;;;;;17.25;10.63;;;;;;;20.28;75.96;101682.78;5005278;28;20029;-83
2021/07/22 03:13:26;;;;;;;18.70;9.80;;;;;;;20.23;75.95;101679.84;4993135;28;20237;-83
2021/07/22 03:15:51;;;;;;;15.93;11.32;;;;;;;20.25;76.19;101679.66;4993621;28;20507;-83
2021/07/22 03:18:17;;;;;;;15.32;9.98;;;;;;;20.14;76.42;101679.28;5009873;28;20026;-80
2021/07/22 03:20:42;;;;;;;17.20;10.63;;;;;;;20.12;76.23;101670.47;5010495;28;20029;-82
2021/07/22 03:23:07;;;;;;;15.88;10.45;;;;;;;20.15;76.19;101661.84;5008223;28;20029;-81
2021/07/22 03:25:33;;;;;;;16.30;10.27;;;;;;;20.16;76.58;101679.91;4995076;28;20380;-83
2021/07/22 03:28:04;;;;;;;16.70;10.93;;;;;;;20.04;76.96;101680.81;5021702;28;20484;-84
2021/07/22 03:30:29;;;;;;;18.92;10.82;;;;;;;20.08;76.97;101676.56;5009440;28;20030;-82
2021/07/22 03:32:55;;;;;;;17.77;11.63;;;;;;;19.95;77.12;101667.41;5010453;28;20105;-83
2021/07/22 03:35:20;;;;;;;18.15;11.48;;;;;;;19.86;77.64;101663.22;5002916;28;20120;-81
2021/07/22 03:37:46;;;;;;;16.80;10.68;;;;;;;19.87;78.15;101683.16;5008367;28;20501;-80
2021/07/22 03:40:12;;;;;;;19.58;10.93;;;;;;;19.83;77.88;101680.03;5009914;28;20029;-83
2021/07/22 03:42:37;;;;;;;22.38;11.02;;;;;;;19.69;78.47;101678.41;5004067;28;20053;-82
2021/07/22 03:45:03;;;;;;;20.10;11.30;;;;;;;19.74;78.50;101675.84;5008651;28;20400;-82
2021/07/22 03:47:29;;;;;;;18.30;11.68;;;;;;;19.68;78.63;101663.88;5003374;28;20029;-82
2021/07/22 03:49:54;;;;;;;17.02;11.48;;;;;;;19.74;78.25;101670.38;5010930;28;20053;-84
2021/07/22 03:52:19;;;;;;;20.10;11.88;;;;;;;19.79;78.22;101664.28;5011298;28;20025;-79
2021/07/22 03:54:45;;;;;;;16.80;10.80;;;;;;;19.89;77.81;101675.59;5006761;28;20025;-82
2021/07/22 03:57:10;;;;;;;21.13;11.65;;;;;;;19.87;78.38;101680.41;5008902;28;20032;-83
2021/07/22 03:59:36;;;;;;;21.95;10.88;;;;;;;19.88;77.82;101679.38;5008651;28;20717;-84
2021/07/22 04:02:02;;;;;;;17.92;10.73;;;;;;;19.78;78.09;101677.09;4996169;28;20462;-84
2021/07/22 04:04:28;;;;;;;16.85;11.45;;;;;;;19.79;78.49;101686.13;5010920;28;20037;-83
2021/07/22 04:06:53;;;;;;;18.17;10.95;;;;;;;19.66;78.95;101659.66;5008290;28;20029;-79
2021/07/22 04:09:19;;;;;;;17.73;11.18;;;;;;;19.67;78.89;101661.41;5006218;28;20034;-84
2021/07/22 04:11:44;;;;;;;22.52;11.15;;;;;;;19.74;78.79;101678.56;5001653;28;20021;-83
2021/07/22 04:14:09;;;;;;;18.63;11.32;;;;;;;19.66;79.00;101676.94;5004337;28;20053;-83
2021/07/22 04:16:37;;;;;;;18.73;11.52;;;;;;;19.63;79.25;101674.56;4992029;28;20032;-84
2021/07/22 04:19:04;;;;;;;18.23;11.38;;;;;;;19.60;79.23;101676.91;5007777;28;20084;-82
2021/07/22 04:21:30;;;;;;;18.30;11.20;;;;;;;19.49;79.42;101672.94;4992074;28;20030;-82
2021/07/22 04:23:55;;;;;;;19.33;11.23;;;;;;;19.51;79.13;101670.84;4991300;28;20416;-84
2021/07/22 04:26:21;;;;;;;21.92;13.32;;;;;;;19.47;79.14;101669.56;5003511;28;20184;-83
2021/07/22 04:28:46;;;;;;;17.20;11.02;;;;;;;19.39;79.50;101664.34;4993351;28;20062;-83
2021/07/22 04:31:19;;;;;;;17.20;10.95;;;;;;;19.43;79.49;101673.81;5010090;28;20030;-82
2021/07/22 04:33:45;;;;;;;17.37;11.10;;;;;;;19.39;79.39;101665.19;5015814;28;20028;-80
2021/07/22 04:36:11;;;;;;;16.77;10.65;;;;;;;19.43;79.37;101668.34;5021660;28;20282;-83
2021/07/22 04:38:39;;;;;;;18.17;11.70;;;;;;;19.32;79.25;101646.13;5009889;28;20026;-83
2021/07/22 04:41:05;;;;;;;18.77;10.88;;;;;;;19.41;78.87;101648.63;5015569;28;20081;-83
2021/07/22 04:43:31;;;;;;;17.27;10.45;;;;;;;19.51;78.60;101666.22;5009355;28;20428;-82
2021/07/22 04:45:56;;;;;;;19.38;11.80;;;;;;;19.29;78.85;101635.63;5004796;28;20030;-83
2021/07/22 04:48:22;;;;;;;15.95;10.98;;;;;;;19.34;79.04;101659.53;5003757;28;20117;-84
2021/07/22 04:50:48;;;;;;;16.10;11.13;;;;;;;19.27;79.17;101656.81;4993758;28;20022;-83
2021/07/22 04:53:14;;;;;;;20.00;11.23;;;;;;;19.35;79.02;101666.69;5000665;28;20026;-82
2021/07/22 04:55:39;;;;;;;20.52;10.70;;;;;;;19.34;79.07;101654.06;4995525;28;20029;-80
2021/07/22 04:58:05;;;;;;;16.38;10.77;;;;;;;19.37;78.64;101655.53;5011407;28;20587;-80
2021/07/22 05:00:30;;;;;;;18.10;10.80;;;;;;;19.21;78.58;101630.41;5009846;28;20022;-84
2021/07/22 05:02:59;;;;;;;18.70;10.45;;;;;;;19.47;78.31;101664.13;5011033;28;20030;-83
2021/07/22 05:05:26;;;;;;;20.08;10.65;;;;;;;19.45;77.92;101664.34;5009339;28;20030;-81
2021/07/22 05:07:51;;;;;;;17.80;11.32;;;;;;;19.39;77.67;101658.91;5010984;28;20033;-84
2021/07/22 05:10:17;;;;;;;14.77;10.02;;;;;;;19.41;77.78;101668.53;5010506;28;20036;-81
2021/07/22 05:12:42;;;;;;;15.13;10.13;;;;;;;19.37;77.81;101653.69;5005160;28;20021;-84
2021/07/22 05:15:08;;;;;;;16.70;10.90;;;;;;;19.36;77.67;101648.41;4995353;28;20021;-83
2021/07/22 05:17:36;;;;;;;16.80;10.60;;;;;;;19.32;77.94;101651.56;4995681;28;20440;-83
2021/07/22 05:20:01;;;;;;;18.33;10.48;;;;;;;19.38;77.68;101662.69;4994669;28;20476;-82
2021/07/22 05:22:27;;;;;;;15.32;9.40;;;;;;;19.11;77.94;101633.56;5020412;28;20084;-84
2021/07/22 05:24:52;;;;;;;16.15;10.00;;;;;;;19.21;78.18;101667.72;5005555;28;20145;-84
2021/07/22 05:27:19;;;;;;;14.93;9.30;;;;;;;19.18;78.24;101665.41;4995142;28;20138;-84
2021/07/22 05:29:44;;;;;;;16.10;9.35;;;;;;;19.29;77.93;101667.50;4999066;28;20025;-83
2021/07/22 05:32:13;;;;;;;14.25;9.68;;;;;;;19.43;77.52;101671.91;4992424;28;20048;-84
2021/07/22 05:34:38;;;;;;;21.10;10.13;;;;;;;19.54;77.06;101670.41;5004631;28;20064;-82
2021/07/22 05:37:05;;;;;;;15.15;9.63;;;;;;;19.59;76.81;101673.34;5013753;28;20026;-83
2021/07/22 05:39:30;;;;;;;14.65;9.32;;;;;;;19.46;76.49;101654.28;4995090;28;20077;-81
2021/07/22 05:41:56;;;;;;;12.75;9.30;;;;;;;19.67;76.65;101681.31;5012580;28;20017;-81
2021/07/22 05:44:21;;;;;;;15.00;8.77;;;;;;;19.74;76.14;101676.69;5015452;28;20041;-82
2021/07/22 05:46:47;;;;;;;17.05;9.60;;;;;;;19.86;75.95;101684.22;5014949;28;20029;-83
2021/07/22 05:49:12;;;;;;;15.70;8.88;;;;;;;19.94;75.97;101692.16;5016005;28;20029;-83
2021/07/22 05:51:37;;;;;;;15.80;8.85;;;;;;;19.93;75.63;101685.88;4999238;28;20024;-82
2021/07/22 05:54:03;;;;;;;17.00;9.13;;;;;;;19.92;75.81;101683.34;5026569;28;20033;-82
2021/07/22 05:56:28;;;;;;;15.18;8.98;;;;;;;19.99;75.22;101687.72;4999771;28;20491;-82
2021/07/22 05:58:54;;;;;;;15.20;9.32;;;;;;;20.02;74.99;101688.34;5016286;28;20041;-82
2021/07/22 06:01:20;;;;;;;12.90;8.70;;;;;;;20.03;75.56;101679.97;5017391;28;20032;-83
2021/07/22 06:03:45;;;;;;;13.73;8.65;;;;;;;20.00;75.75;101677.63;5013095;28;20030;-83
2021/07/22 06:06:11;;;;;;;14.18;9.18;;;;;;;20.05;75.10;101677.84;5011939;28;20034;-82
2021/07/22 06:08:36;;;;;;;12.00;9.13;;;;;;;20.14;74.66;101681.19;5010917;28;20056;-83
2021/07/22 06:11:06;;;;;;;18.15;9.07;;;;;;;20.04;74.91;101664.41;5016469;28;20501;-83
2021/07/22 06:13:33;;;;;;;17.80;10.18;;;;;;;20.15;74.99;101675.47;5001737;28;20026;-83
2021/07/22 06:16:00;;;;;;;15.27;8.43;;;;;;;20.14;75.01;101671.09;4998114;28;20026;-83
2021/07/22 06:18:26;;;;;;;16.40;8.65;;;;;;;20.28;74.94;101679.22;5015783;28;20108;-82
2021/07/22 06:20:53;;;;;;;16.95;9.05;;;;;;;20.30;74.98;101669.75;5013157;28;20050;-83
2021/07/22 06:23:18;;;;;;;13.30;8.75;;;;;;;20.36;74.71;101677.06;5010956;28;20493;-83
2021/07/22 06:25:44;;;;;;;15.35;10.15;;;;;;;20.42;74.44;101678.06;5010453;28;20018;-82
2021/07/22 06:28:09;;;;;;;12.52;8.80;;;;;;;20.43;74.14;101679.78;5011873;28;20174;-83
2021/07/22 06:30:35;;;;;;;16.45;9.05;;;;;;;20.43;74.07;101679.78;5029492;28;20092;-83
2021/07/22 06:33:00;;;;;;;15.88;8.93;;;;;;;20.38;74.12;101671.41;4995184;28;20041;-82
2021/07/22 06:35:26;;;;;;;14.77;8.25;;;;;;;20.43;73.96;101671.56;5008652;28;20087;-82
2021/07/22 06:37:51;;;;;;;14.73;8.63;;;;;;;20.40;74.36;101667.38;5011928;28;20018;-83
2021/07/22 06:40:17;;;;;;;12.52;8.98;;;;;;;20.49;74.18;101665.22;5015131;28;20029;-82
2021/07/22 06:42:42;;;;;;;13.18;8.63;;;;;;;20.58;73.73;101663.09;5011697;28;20029;-83
2021/07/22 06:45:09;;;;;;;12.23;8.73;;;;;;;20.58;73.76;101666.66;5017547;28;20030;-82
2021/07/22 06:47:37;;;;;;;17.35;9.05;;;;;;;20.63;73.79;101666.00;5010560;28;20038;-83
2021/07/22 06:50:02;;;;;;;17.00;9.55;;;;;;;20.73;74.00;101673.72;5023178;28;20033;-81
2021/07/22 06:52:28;;;;;;;15.77;8.52;;;;;;;20.76;73.76;101671.38;5009020;28;20523;-78
2021/07/22 06:54:53;;;;;;;15.10;8.82;;;;;;;20.76;73.98;101678.75;5008522;28;20438;-78
2021/07/22 06:57:19;;;;;;;13.63;8.98;;;;;;;20.78;73.75;101671.16;5009309;28;20025;-81
2021/07/22 06:59:44;;;;;;;14.85;8.80;;;;;;;20.85;73.38;101670.06;4995756;28;20470;-77
2021/07/22 07:02:09;;;;;;;14.52;8.85;;;;;;;20.90;72.92;101676.75;5010597;28;20018;-76
2021/07/22 07:04:35;;;;;;;13.35;8.68;;;;;;;20.91;72.83;101667.50;5003458;28;20055;-77
2021/07/22 07:07:00;;;;;;;14.65;8.85;;;;;;;20.92;72.20;101675.47;5011149;28;20034;-77
2021/07/22 07:09:25;;;;;;;14.38;9.05;;;;;;;20.89;71.97;101659.50;5007167;28;20817;-77
2021/07/22 07:11:51;;;;;;;13.80;8.82;;;;;;;20.89;71.87;101664.16;5005975;28;20032;-78
2021/07/22 07:14:16;;;;;;;12.18;8.50;;;;;;;20.91;71.72;101651.09;5009413;28;20041;-76
2021/07/22 07:16:42;;;;;;;17.17;10.38;;;;;;;21.00;71.90;101664.25;5008610;28;20010;-85
2021/07/22 07:19:07;;;;;;;13.68;8.50;;;;;;;20.99;71.79;101668.06;5011861;28;20025;-84
2021/07/22 07:21:39;;;;;;;14.88;8.77;;;;;;;21.06;71.57;101671.56;5002221;28;20497;-84
2021/07/22 07:24:05;;;;;;;14.68;8.77;;;;;;;21.00;72.17;101664.25;5014082;28;20032;-84
2021/07/22 07:26:30;;;;;;;13.52;8.98;;;;;;;21.09;71.94;101673.03;5019467;28;20809;-83
2021/07/22 07:28:56;;;;;;;15.45;9.23;;;;;;;21.12;71.73;101668.97;4989687;28;20132;-83
2021/07/22 07:31:22;;;;;;;17.10;9.75;;;;;;;21.11;71.64;101653.66;4991644;28;20025;-82
2021/07/22 07:33:48;;;;;;;19.52;9.23;;;;;;;21.28;71.46;101676.66;5018809;28;20056;-79
2021/07/22 07:36:13;;;;;;;13.88;8.77;;;;;;;21.37;70.95;101671.72;5025261;28;20072;-79
2021/07/22 07:38:39;;;;;;;13.88;8.95;;;;;;;21.50;70.30;101685.28;5006415;28;20054;-79
2021/07/22 07:41:04;;;;;;;15.48;8.43;;;;;;;21.52;69.85;101667.59;5024591;28;20025;-80
2021/07/22 07:43:30;;;;;;;10.70;8.27;;;;;;;21.66;69.83;101668.28;5009546;28;20022;-81
2021/07/22 07:45:55;;;;;;;13.98;9.30;;;;;;;21.80;69.08;101674.41;5010682;28;20036;-80
2021/07/22 07:48:20;;;;;;;13.38;8.27;;;;;;;21.83;68.61;101667.66;4994111;28;20029;-81
2021/07/22 07:50:46;;;;;;;12.63;8.88;;;;;;;21.82;68.78;101671.47;5007783;28;20255;-76
2021/07/22 07:53:16;;;;;;;16.38;9.05;;;;;;;21.93;68.58;101677.00;5003852;28;20384;-77
2021/07/22 07:55:42;;;;;;;13.05;8.15;;;;;;;22.12;68.37;101675.09;5006610;28;20030;-77
2021/07/22 07:58:08;;;;;;;12.10;7.63;;;;;;;22.24;67.95;101675.19;5005139;28;20045;-76
2021/07/22 08:00:34;;;;;;;14.57;8.93;;;;;;;22.32;66.91;101680.34;5010555;28;20061;-75
2021/07/22 08:02:59;;;;;;;11.68;7.82;;;;;;;22.43;66.52;101669.66;5005274;28;20453;-76
2021/07/22 08:05:26;;;;;;;14.05;8.68;;;;;;;22.52;66.38;101676.47;5007471;28;20090;-77
2021/07/22 08:07:51;;;;;;;13.43;8.13;;;;;;;22.63;66.47;101678.44;4999941;28;20034;-75
2021/07/22 08:10:17;;;;;;;11.88;7.60;;;;;;;22.67;66.14;101676.06;5003643;28;20108;-75
2021/07/22 08:12:42;;;;;;;13.52;7.50;;;;;;;22.78;65.90;101670.63;4999061;28;20076;-77
2021/07/22 08:15:09;;;;;;;12.80;7.55;;;;;;;22.87;65.24;101678.50;5003208;28;20049;-77
2021/07/22 08:17:35;;;;;;;14.48;7.82;;;;;;;22.93;65.32;101677.53;5007262;28;20129;-77
2021/07/22 08:20:03;;;;;;;16.98;8.23;;;;;;;23.04;65.55;101668.53;5007474;28;20476;-78
2021/07/22 08:22:29;;;;;;;16.38;8.55;;;;;;;23.10;64.52;101666.75;5007837;28;20261;-78
2021/07/22 08:24:54;;;;;;;11.98;7.95;;;;;;;23.17;63.94;101678.44;5006543;28;20038;-86
2021/07/22 08:27:28;;;;;;;10.48;7.75;;;;;;;23.14;64.08;101673.44;4995931;28;20025;-84
2021/07/22 08:29:54;;;;;;;13.50;7.43;;;;;;;23.08;64.11;101667.00;5018661;28;20427;-85
2021/07/22 08:32:20;;;;;;;12.27;8.20;;;;;;;23.04;64.13;101668.53;5014802;28;20022;-86
2021/07/22 08:34:46;;;;;;;15.15;8.52;;;;;;;23.06;64.09;101671.03;4999505;28;20165;-85
2021/07/22 08:37:11;;;;;;;14.23;8.40;;;;;;;23.04;63.96;101663.88;4999429;28;20021;-86
2021/07/22 08:39:38;;;;;;;15.30;8.20;;;;;;;23.11;64.26;101663.78;5000555;28;20064;-86
2021/07/22 08:42:07;;;;;;;26.73;9.52;;;;;;;23.38;64.75;101666.03;5004193;28;20030;-85
2021/07/22 08:44:35;;;;;;;12.90;8.18;;;;;;;23.50;64.46;101666.88;5018100;28;20025;-86
2021/07/22 08:47:01;;;;;;;14.88;8.48;;;;;;;23.48;63.87;101669.03;5020383;28;20048;-86
2021/07/22 08:49:27;;;;;;;17.38;8.77;;;;;;;23.66;63.05;101665.31;4998069;28;20030;-86
2021/07/22 08:51:53;;;;;;;15.10;7.97;;;;;;;23.69;62.50;101667.56;5000706;28;20034;-85
2021/07/22 08:54:18;;;;;;;13.30;8.02;;;;;;;23.80;62.34;101660.41;5013129;28;20456;-85
2021/07/22 08:56:44;;;;;;;14.10;8.20;;;;;;;23.93;62.19;101668.38;4995412;28;20028;-84
2021/07/22 08:59:10;;;;;;;11.60;8.25;;;;;;;24.07;61.75;101675.25;4995980;28;20022;-85
2021/07/22 09:01:36;;;;;;;16.25;8.85;;;;;;;24.00;61.78;101655.34;5011431;28;20030;-84
2021/07/22 09:04:01;;;;;;;15.23;8.18;;;;;;;24.13;62.03;101666.06;5011093;28;20034;-82
2021/07/22 09:06:27;;;;;;;21.05;9.55;;;;;;;24.42;62.06;101674.28;5000213;28;20056;-83
2021/07/22 09:08:54;;;;;;;14.10;8.63;;;;;;;24.72;61.31;101673.22;5001237;28;20484;-82
2021/07/22 09:11:20;;;;;;;16.45;8.90;;;;;;;25.04;59.42;101664.41;5020268;28;20049;-82
2021/07/22 09:13:49;;;;;;;14.13;8.75;;;;;;;25.26;58.28;101654.31;5018349;28;20033;-82
2021/07/22 09:16:15;;;;;;;18.23;8.43;;;;;;;25.43;58.05;101662.53;5017573;28;20026;-83
2021/07/22 09:18:44;;;;;;;13.98;8.73;;;;;;;25.66;57.47;101659.56;5014683;28;20370;-83
2021/07/22 09:21:23;;;;;;;15.57;8.88;;;;;;;25.81;56.80;101660.84;5013403;28;20080;-82
2021/07/22 09:24:05;;;;;;;13.88;7.95;;;;;;;25.62;58.00;101669.44;5006279;28;20018;-81
2021/07/22 09:26:32;;;;;;;14.98;8.65;;;;;;;25.44;58.50;101664.22;5010529;28;20033;-83
2021/07/22 09:29:16;;;;;;;14.60;8.15;;;;;;;25.21;58.95;101666.06;5013205;28;20098;-84
2021/07/22 09:31:42;;;;;;;14.15;8.23;;;;;;;24.98;59.47;101642.31;5005904;28;20021;-82
2021/07/22 09:34:24;;;;;;;14.93;8.52;;;;;;;25.00;60.40;101658.53;5013985;28;20030;-82
2021/07/22 09:36:50;;;;;;;16.17;8.80;;;;;;;25.05;59.74;101655.88;5006609;28;20021;-80
2021/07/22 09:39:17;;;;;;;15.77;8.80;;;;;;;25.13;59.38;101649.13;5013072;28;20036;-82
2021/07/22 09:41:43;;;;;;;12.25;8.63;;;;;;;25.09;59.84;101654.31;5012800;28;20093;-81
2021/07/22 09:44:32;;;;;;;13.57;7.90;;;;;;;25.12;60.24;101655.72;5013594;28;20022;-82
2021/07/22 09:46:58;;;;;;;13.52;8.73;;;;;;;25.31;58.84;101659.88;5013668;28;20334;-84
2021/07/22 09:49:37;;;;;;;15.73;8.15;;;;;;;25.59;57.93;101647.91;5015174;28;20584;-82
2021/07/22 09:52:26;;;;;;;15.30;8.32;;;;;;;25.92;56.97;101648.06;5012853;28;20116;-82
2021/07/22 09:54:51;;;;;;;16.15;8.52;;;;;;;25.79;56.35;101649.25;5014388;28;20072;-82
2021/07/22 09:57:18;;;;;;;16.10;8.50;;;;;;;25.92;55.07;101654.41;4996531;28;20030;-83
2021/07/22 09:59:45;;;;;;;16.00;8.48;;;;;;;25.92;55.68;101653.56;4997512;28;20060;-83
2021/07/22 10:02:31;;;;;;;25.52;10.00;;;;;;;25.90;56.63;101656.56;5010757;28;20509;-81
2021/07/22 10:05:01;;;;;;;17.58;8.45;;;;;;;26.27;55.92;101662.25;5023858;28;20049;-84
2021/07/22 10:07:27;;;;;;;14.00;8.70;;;;;;;26.74;55.68;101652.53;4996291;28;20025;-83
2021/07/22 10:09:55;;;;;;;12.23;8.02;;;;;;;27.07;54.13;101662.47;5014675;28;20424;-84
2021/07/22 10:12:22;;;;;;;13.48;8.20;;;;;;;26.93;53.30;101656.56;4996534;28;20102;-82
2021/07/22 10:14:55;;;;;;;13.65;8.05;;;;;;;26.87;53.01;101654.03;4995996;28;20029;-81
2021/07/22 10:17:47;;;;;;;19.85;9.10;;;;;;;26.91;53.67;101652.38;5013424;28;20473;-81
2021/07/22 10:20:13;;;;;;;17.08;8.50;;;;;;;27.17;53.96;101646.00;4995850;28;20069;-80
2021/07/22 10:22:42;;;;;;;12.23;8.32;;;;;;;27.47;52.12;101652.81;4998233;28;20054;-81
2021/07/22 10:25:10;;;;;;;14.30;8.45;;;;;;;27.75;51.71;101646.03;5014060;28;20033;-83
2021/07/22 10:27:37;;;;;;;19.52;8.63;;;;;;;28.05;50.42;101638.97;4997017;28;20138;-83
2021/07/22 10:30:08;;;;;;;12.52;9.00;;;;;;;28.05;49.62;101637.06;5012695;28;20161;-82
2021/07/22 10:32:34;;;;;;;16.70;8.48;;;;;;;28.14;49.87;101650.38;5027752;28;20204;-81
2021/07/22 10:35:00;;;;;;;14.48;8.77;;;;;;;28.40;48.76;101645.72;5013030;28;20022;-84
2021/07/22 10:37:26;;;;;;;14.38;8.38;;;;;;;28.66;48.60;101647.44;4995536;28;20642;-83
2021/07/22 10:40:10;;;;;;;14.98;8.27;;;;;;;28.88;48.26;101652.69;5011738;28;20034;-84
2021/07/22 10:42:49;;;;;;;16.98;8.63;;;;;;;28.83;47.09;101646.34;5011575;28;20487;-83
2021/07/22 10:45:20;;;;;;;30.65;10.15;;;;;;;28.92;46.73;101656.59;5014334;28;20026;-83
2021/07/22 10:48:08;;;;;;;15.13;7.78;;;;;;;29.06;46.15;101658.81;5012794;28;20026;-84
2021/07/22 10:50:42;;;;;;;15.88;7.55;;;;;;;29.03;46.03;101646.31;4995663;28;20033;-83
2021/07/22 10:53:07;;;;;;;21.33;8.30;;;;;;;29.09;45.64;101656.31;5013163;28;20056;-82
2021/07/22 10:55:42;;;;;;;15.20;8.27;;;;;;;29.25;44.50;101659.06;5011668;28;20022;-82
2021/07/22 10:58:29;;;;;;;11.93;7.40;;;;;;;29.23;44.27;101662.09;5015911;28;20025;-82
2021/07/22 11:00:55;;;;;;;15.43;7.95;;;;;;;29.26;43.39;101660.72;5007547;28;20040;-83
2021/07/22 11:03:32;;;;;;;15.48;8.60;;;;;;;29.15;43.53;101657.13;4996403;28;20037;-84
2021/07/22 11:05:59;;;;;;;17.73;8.07;;;;;;;29.06;44.17;101639.44;5013085;28;20037;-82
2021/07/22 11:08:29;;;;;;;13.10;8.60;;;;;;;29.18;44.99;101655.75;4994982;28;20392;-84
2021/07/22 11:11:00;;;;;;;13.20;8.23;;;;;;;29.28;43.55;101631.63;5011091;28;20112;-84
2021/07/22 11:13:34;;;;;;;14.32;8.68;;;;;;;29.68;43.00;101646.50;5012216;28;20100;-82